createdAt,value
2023-05-02T00:00:52.714Z,989.27
2023-05-02T00:01:52.654Z,989.31
2023-05-02T00:02:52.792Z,989.30
2023-05-02T00:03:52.764Z,989.28
2023-05-02T00:04:52.595Z,989.27
2023-05-02T00:05:52.630Z,989.30
2023-05-02T00:06:52.691Z,989.30
2023-05-02T00:07:52.562Z,989.25
2023-05-02T00:08:52.550Z,989.25
2023-05-02T00:09:52.564Z,989.30
2023-05-02T00:10:52.582Z,989.23
2023-05-02T00:11:52.539Z,989.28
2023-05-02T00:12:52.535Z,989.28
2023-05-02T00:13:52.514Z,989.32
2023-05-02T00:14:52.516Z,989.28
2023-05-02T00:15:52.489Z,989.30
2023-05-02T00:16:52.526Z,989.32
2023-05-02T00:17:52.524Z,989.31
2023-05-02T00:18:52.488Z,989.29
2023-05-02T00:19:52.470Z,989.32
2023-05-02T00:20:52.462Z,989.30
2023-05-02T00:21:52.445Z,989.30
2023-05-02T00:22:52.414Z,989.33
2023-05-02T00:23:52.417Z,989.36
2023-05-02T00:24:52.412Z,989.36
2023-05-02T00:25:52.407Z,989.39
2023-05-02T00:26:52.399Z,989.43
2023-05-02T00:27:52.373Z,989.28
2023-05-02T00:28:52.382Z,989.43
2023-05-02T00:29:52.381Z,989.38
2023-05-02T00:30:52.373Z,989.37
2023-05-02T00:31:52.364Z,989.35
2023-05-02T00:32:52.374Z,989.30
2023-05-02T00:33:52.348Z,989.31
2023-05-02T00:34:52.324Z,989.35
2023-05-02T00:35:52.367Z,989.31
2023-05-02T00:36:53.276Z,989.30
2023-05-02T00:37:52.275Z,989.40
2023-05-02T00:38:52.264Z,989.32
2023-05-02T00:39:52.253Z,989.30
2023-05-02T00:40:52.276Z,989.34
2023-05-02T00:41:52.263Z,989.38
2023-05-02T00:42:52.252Z,989.33
2023-05-02T00:43:52.212Z,989.32
2023-05-02T00:44:52.197Z,989.38
2023-05-02T00:45:52.299Z,989.33
2023-05-02T00:46:52.218Z,989.36
2023-05-02T00:47:52.202Z,989.32
2023-05-02T00:48:52.176Z,989.35
2023-05-02T00:49:52.146Z,989.32
2023-05-02T00:50:52.146Z,989.34
2023-05-02T00:51:52.174Z,989.36
2023-05-02T00:52:53.144Z,989.44
2023-05-02T00:53:52.128Z,989.41
2023-05-02T00:54:52.132Z,989.34
2023-05-02T00:55:52.100Z,989.34
2023-05-02T00:56:52.089Z,989.37
2023-05-02T00:57:53.084Z,989.31
2023-05-02T00:58:52.088Z,989.35
2023-05-02T00:59:52.053Z,989.36
2023-05-02T01:00:52.091Z,989.39
2023-05-02T01:01:52.062Z,989.37
2023-05-02T01:02:52.205Z,989.41
2023-05-02T01:03:52.206Z,989.37
2023-05-02T01:04:52.022Z,989.39
2023-05-02T01:05:51.999Z,989.36
2023-05-02T01:06:52.110Z,989.43
2023-05-02T01:07:51.956Z,989.34
2023-05-02T01:08:51.975Z,989.36
2023-05-02T01:09:51.960Z,989.39
2023-05-02T01:10:51.971Z,989.35
2023-05-02T01:11:51.933Z,989.40
2023-05-02T01:12:51.918Z,989.38
2023-05-02T01:13:51.929Z,989.39
2023-05-02T01:14:51.937Z,989.38
2023-05-02T01:15:52.004Z,989.39
2023-05-02T01:16:51.908Z,989.36
2023-05-02T01:17:51.952Z,989.42
2023-05-02T01:18:51.854Z,989.41
2023-05-02T01:19:51.848Z,989.43
2023-05-02T01:20:51.862Z,989.39
2023-05-02T01:21:51.819Z,989.42
2023-05-02T01:22:51.806Z,989.46
2023-05-02T01:23:51.812Z,989.45
2023-05-02T01:24:51.802Z,989.38
2023-05-02T01:25:51.814Z,989.49
2023-05-02T01:26:51.797Z,989.53
2023-05-02T01:27:51.767Z,989.52
2023-05-02T01:28:51.760Z,989.55
2023-05-02T01:29:51.751Z,989.54
2023-05-02T01:30:51.781Z,989.54
2023-05-02T01:31:51.754Z,989.57
2023-05-02T01:32:51.749Z,989.53
2023-05-02T01:33:51.708Z,989.52
2023-05-02T01:34:51.704Z,989.59
2023-05-02T01:35:51.715Z,989.64
2023-05-02T01:36:51.692Z,989.64
2023-05-02T01:37:52.690Z,989.59
2023-05-02T01:38:51.719Z,989.62
2023-05-02T01:39:51.651Z,989.64
2023-05-02T01:40:51.647Z,989.58
2023-05-02T01:41:51.694Z,989.64
2023-05-02T01:42:51.611Z,989.61
2023-05-02T01:43:51.620Z,989.59
2023-05-02T01:44:51.588Z,989.66
2023-05-02T01:45:51.587Z,989.65
2023-05-02T01:46:51.667Z,989.69
2023-05-02T01:47:51.632Z,989.71
2023-05-02T01:48:51.558Z,989.71
2023-05-02T01:49:51.566Z,989.70
2023-05-02T01:50:51.573Z,989.76
2023-05-02T01:51:52.553Z,989.76
2023-05-02T01:52:51.564Z,989.72
2023-05-02T01:53:51.541Z,989.75
2023-05-02T01:54:51.514Z,989.75
2023-05-02T01:55:51.493Z,989.76
2023-05-02T01:56:51.565Z,989.76
2023-05-02T01:57:51.479Z,989.78
2023-05-02T01:58:51.460Z,989.78
2023-05-02T01:59:51.460Z,989.82
2023-05-02T02:00:51.500Z,989.78
2023-05-02T02:01:51.454Z,989.76
2023-05-02T02:02:51.459Z,989.81
2023-05-02T02:03:51.554Z,989.81
2023-05-02T02:04:51.418Z,989.78
2023-05-02T02:05:51.432Z,989.78
2023-05-02T02:06:51.396Z,989.79
2023-05-02T02:07:51.427Z,989.83
2023-05-02T02:08:51.353Z,989.82
2023-05-02T02:09:51.414Z,989.76
2023-05-02T02:10:51.346Z,989.79
2023-05-02T02:11:51.439Z,989.82
2023-05-02T02:12:51.318Z,989.84
2023-05-02T02:13:51.316Z,989.81
2023-05-02T02:14:51.344Z,989.85
2023-05-02T02:15:51.304Z,989.80
2023-05-02T02:16:51.323Z,989.79
2023-05-02T02:17:51.291Z,989.87
2023-05-02T02:18:51.275Z,989.81
2023-05-02T02:19:51.266Z,989.83
2023-05-02T02:20:51.262Z,989.87
2023-05-02T02:21:51.233Z,989.80
2023-05-02T02:22:51.226Z,989.86
2023-05-02T02:23:51.219Z,989.80
2023-05-02T02:24:52.458Z,989.86
2023-05-02T02:25:51.230Z,989.82
2023-05-02T02:26:51.194Z,989.86
2023-05-02T02:27:51.177Z,989.89
2023-05-02T02:28:51.161Z,989.87
2023-05-02T02:29:51.157Z,989.92
2023-05-02T02:30:51.189Z,989.87
2023-05-02T02:31:51.133Z,989.88
2023-05-02T02:32:52.210Z,989.96
2023-05-02T02:33:51.109Z,989.96
2023-05-02T02:34:51.088Z,989.96
2023-05-02T02:35:51.109Z,989.98
2023-05-02T02:36:51.096Z,990.02
2023-05-02T02:37:51.069Z,990.03
2023-05-02T02:38:51.091Z,990.04
2023-05-02T02:39:51.051Z,990.05
2023-05-02T02:40:51.042Z,990.03
2023-05-02T02:41:51.044Z,990.02
2023-05-02T02:42:51.027Z,990.05
2023-05-02T02:43:51.039Z,989.97
2023-05-02T02:44:51.021Z,989.97
2023-05-02T02:45:51.072Z,989.98
2023-05-02T02:46:50.986Z,989.96
2023-05-02T02:47:51.052Z,990.03
2023-05-02T02:48:50.989Z,990.04
2023-05-02T02:49:50.997Z,990.04
2023-05-02T02:50:50.949Z,990.05
2023-05-02T02:51:51.007Z,990.03
2023-05-02T02:52:50.940Z,990.03
2023-05-02T02:53:51.011Z,990.04
2023-05-02T02:54:50.951Z,990.08
2023-05-02T02:55:51.001Z,990.05
2023-05-02T02:56:50.904Z,990.08
2023-05-02T02:57:50.891Z,990.12
2023-05-02T02:58:50.891Z,990.09
2023-05-02T02:59:50.883Z,990.13
2023-05-02T03:00:50.888Z,990.15
2023-05-02T03:01:50.872Z,990.15
2023-05-02T03:02:50.897Z,990.15
2023-05-02T03:03:50.921Z,990.18
2023-05-02T03:04:50.828Z,990.22
2023-05-02T03:05:50.830Z,990.22
2023-05-02T03:06:50.849Z,990.21
2023-05-02T03:07:50.823Z,990.20
2023-05-02T03:08:50.786Z,990.22
2023-05-02T03:09:50.782Z,990.21
2023-05-02T03:10:50.753Z,990.26
2023-05-02T03:11:50.740Z,990.31
2023-05-02T03:12:50.749Z,990.28
2023-05-02T03:13:50.739Z,990.26
2023-05-02T03:14:50.722Z,990.34
2023-05-02T03:15:50.730Z,990.35
2023-05-02T03:16:50.704Z,990.40
2023-05-02T03:18:22.603Z,990.39
2023-05-02T03:18:50.631Z,990.36
2023-05-02T03:19:50.613Z,990.36
2023-05-02T03:20:51.617Z,990.33
2023-05-02T03:21:50.622Z,990.32
2023-05-02T03:22:50.599Z,990.40
2023-05-02T03:23:50.588Z,990.49
2023-05-02T03:24:50.568Z,990.47
2023-05-02T03:25:50.559Z,990.47
2023-05-02T03:26:50.610Z,990.52
2023-05-02T03:27:50.644Z,990.47
2023-05-02T03:28:50.537Z,990.47
2023-05-02T03:29:50.527Z,990.47
2023-05-02T03:30:50.517Z,990.55
2023-05-02T03:31:50.635Z,990.51
2023-05-02T03:32:50.589Z,990.57
2023-05-02T03:33:50.484Z,990.61
2023-05-02T03:34:50.487Z,990.61
2023-05-02T03:35:50.471Z,990.59
2023-05-02T03:36:50.473Z,990.60
2023-05-02T03:37:50.480Z,990.63
2023-05-02T03:38:50.445Z,990.58
2023-05-02T03:39:50.424Z,990.61
2023-05-02T03:40:50.423Z,990.59
2023-05-02T03:41:50.458Z,990.57
2023-05-02T03:42:50.402Z,990.59
2023-05-02T03:43:50.380Z,990.65
2023-05-02T03:44:50.373Z,990.60
2023-05-02T03:45:50.369Z,990.62
2023-05-02T03:46:50.509Z,990.62
2023-05-02T03:47:50.421Z,990.63
2023-05-02T03:48:50.337Z,990.68
2023-05-02T03:49:50.335Z,990.63
2023-05-02T03:50:50.326Z,990.65
2023-05-02T03:51:50.310Z,990.68
2023-05-02T03:52:50.356Z,990.66
2023-05-02T03:53:50.282Z,990.66
2023-05-02T03:54:50.290Z,990.66
2023-05-02T03:55:50.270Z,990.71
2023-05-02T03:56:50.256Z,990.70
2023-05-02T03:57:50.243Z,990.75
2023-05-02T03:58:50.258Z,990.69
2023-05-02T03:59:50.228Z,990.76
2023-05-02T04:00:50.237Z,990.77
2023-05-02T04:01:50.357Z,990.75
2023-05-02T04:02:50.454Z,990.80
2023-05-02T04:03:50.219Z,990.84
2023-05-02T04:04:50.201Z,990.75
2023-05-02T04:05:50.189Z,990.75
2023-05-02T04:06:50.272Z,990.80
2023-05-02T04:07:50.149Z,990.80
2023-05-02T04:08:50.136Z,990.88
2023-05-02T04:09:50.160Z,990.81
2023-05-02T04:10:50.157Z,990.87
2023-05-02T04:11:50.106Z,990.78
2023-05-02T04:12:50.089Z,990.80
2023-05-02T04:13:52.587Z,990.85
2023-05-02T04:14:50.080Z,990.92
2023-05-02T04:15:50.182Z,990.96
2023-05-02T04:16:50.152Z,990.91
2023-05-02T04:17:50.086Z,990.91
2023-05-02T04:18:50.047Z,990.95
2023-05-02T04:19:50.030Z,990.95
2023-05-02T04:20:50.021Z,991.00
2023-05-02T04:21:50.030Z,991.09
2023-05-02T04:22:50.008Z,991.02
2023-05-02T04:23:49.987Z,991.06
2023-05-02T04:24:49.982Z,991.12
2023-05-02T04:25:49.973Z,991.12
2023-05-02T04:26:50.004Z,991.24
2023-05-02T04:27:50.030Z,991.16
2023-05-02T04:28:49.942Z,991.20
2023-05-02T04:29:50.927Z,991.18
2023-05-02T04:30:49.997Z,991.19
2023-05-02T04:31:49.954Z,991.22
2023-05-02T04:32:49.963Z,991.20
2023-05-02T04:33:49.906Z,991.28
2023-05-02T04:34:49.876Z,991.27
2023-05-02T04:35:49.882Z,991.31
2023-05-02T04:36:49.884Z,991.29
2023-05-02T04:37:49.857Z,991.29
2023-05-02T04:38:49.837Z,991.26
2023-05-02T04:39:49.828Z,991.28
2023-05-02T04:40:49.815Z,991.34
2023-05-02T04:41:49.894Z,991.44
2023-05-02T04:42:49.795Z,991.41
2023-05-02T04:43:49.805Z,991.40
2023-05-02T04:44:49.781Z,991.50
2023-05-02T04:45:49.808Z,991.51
2023-05-02T04:46:49.866Z,991.48
2023-05-02T04:47:49.961Z,991.50
2023-05-02T04:48:49.745Z,991.54
2023-05-02T04:49:49.719Z,991.55
2023-05-02T04:50:49.715Z,991.64
2023-05-02T04:51:49.722Z,991.59
2023-05-02T04:52:49.725Z,991.64
2023-05-02T04:53:49.689Z,991.65
2023-05-02T04:54:49.705Z,991.75
2023-05-02T04:55:49.696Z,991.68
2023-05-02T04:56:49.659Z,991.72
2023-05-02T04:57:49.682Z,991.72
2023-05-02T04:58:49.657Z,991.77
2023-05-02T04:59:49.653Z,991.74
2023-05-02T05:00:49.634Z,991.79
2023-05-02T05:01:49.636Z,991.80
2023-05-02T05:02:49.685Z,991.80
2023-05-02T05:03:49.753Z,991.82
2023-05-02T05:04:49.596Z,991.80
2023-05-02T05:05:49.568Z,991.78
2023-05-02T05:06:49.619Z,991.77
2023-05-02T05:07:49.552Z,991.83
2023-05-02T05:08:49.574Z,991.82
2023-05-02T05:09:51.179Z,991.75
2023-05-02T05:10:49.527Z,991.81
2023-05-02T05:11:49.513Z,991.80
2023-05-02T05:12:49.509Z,991.79
2023-05-02T05:13:49.512Z,991.83
2023-05-02T05:14:49.483Z,991.77
2023-05-02T05:15:49.523Z,991.75
2023-05-02T05:16:49.608Z,991.81
2023-05-02T05:17:49.469Z,991.86
2023-05-02T05:18:49.487Z,991.78
2023-05-02T05:19:49.455Z,991.84
2023-05-02T05:20:49.431Z,991.84
2023-05-02T05:21:49.432Z,991.91
2023-05-02T05:22:49.403Z,991.90
2023-05-02T05:23:49.407Z,991.91
2023-05-02T05:24:49.404Z,991.91
2023-05-02T05:25:49.382Z,991.92
2023-05-02T05:26:49.376Z,991.93
2023-05-02T05:27:49.355Z,991.92
2023-05-02T05:28:49.371Z,991.99
2023-05-02T05:29:49.367Z,992.01
2023-05-02T05:30:49.327Z,992.00
2023-05-02T05:31:49.416Z,992.01
2023-05-02T05:32:49.333Z,992.02
2023-05-02T05:33:49.398Z,992.03
2023-05-02T05:34:49.285Z,992.03
2023-05-02T05:35:49.274Z,992.06
2023-05-02T05:36:49.278Z,992.10
2023-05-02T05:37:49.249Z,992.12
2023-05-02T05:38:49.266Z,992.17
2023-05-02T05:39:49.231Z,992.18
2023-05-02T05:40:49.246Z,992.19
2023-05-02T05:41:49.203Z,992.21
2023-05-02T05:42:49.201Z,992.20
2023-05-02T05:43:49.240Z,992.20
2023-05-02T05:44:49.192Z,992.17
2023-05-02T05:45:49.168Z,992.21
2023-05-02T05:46:49.194Z,992.24
2023-05-02T05:47:49.963Z,992.25
2023-05-02T05:48:49.193Z,992.22
2023-05-02T05:49:49.150Z,992.20
2023-05-02T05:50:49.126Z,992.16
2023-05-02T05:51:49.132Z,992.24
2023-05-02T05:52:49.106Z,992.22
2023-05-02T05:53:49.103Z,992.22
2023-05-02T05:54:49.127Z,992.19
2023-05-02T05:55:49.077Z,992.28
2023-05-02T05:56:49.092Z,992.26
2023-05-02T05:57:49.051Z,992.30
2023-05-02T05:58:49.038Z,992.29
2023-05-02T05:59:49.030Z,992.26
2023-05-02T06:00:49.043Z,992.22
2023-05-02T06:01:49.033Z,992.31
2023-05-02T06:02:49.150Z,992.33
2023-05-02T06:03:49.066Z,992.28
2023-05-02T06:04:49.016Z,992.29
2023-05-02T06:05:48.980Z,992.25
2023-05-02T06:06:49.012Z,992.34
2023-05-02T06:07:49.041Z,992.32
2023-05-02T06:08:48.958Z,992.32
2023-05-02T06:09:48.954Z,992.31
2023-05-02T06:10:48.937Z,992.31
2023-05-02T06:11:48.920Z,992.32
2023-05-02T06:12:49.359Z,992.29
2023-05-02T06:13:49.907Z,992.38
2023-05-02T06:14:48.886Z,992.40
2023-05-02T06:15:48.979Z,992.35
2023-05-02T06:16:48.885Z,992.37
2023-05-02T06:17:48.930Z,992.36
2023-05-02T06:18:48.906Z,992.42
2023-05-02T06:19:48.840Z,992.51
2023-05-02T06:20:48.828Z,992.51
2023-05-02T06:21:48.816Z,992.48
2023-05-02T06:22:48.844Z,992.49
2023-05-02T06:23:48.878Z,992.43
2023-05-02T06:24:48.792Z,992.47
2023-05-02T06:25:48.785Z,992.46
2023-05-02T06:26:48.794Z,992.52
2023-05-02T06:27:48.773Z,992.55
2023-05-02T06:28:48.770Z,992.51
2023-05-02T06:29:48.774Z,992.53
2023-05-02T06:30:48.728Z,992.59
2023-05-02T06:31:48.750Z,992.57
2023-05-02T06:32:48.731Z,992.55
2023-05-02T06:33:48.739Z,992.58
2023-05-02T06:34:48.699Z,992.60
2023-05-02T06:35:48.693Z,992.56
2023-05-02T06:36:48.690Z,992.60
2023-05-02T06:37:48.660Z,992.54
2023-05-02T06:38:48.709Z,992.60
2023-05-02T06:39:48.672Z,992.59
2023-05-02T06:40:48.645Z,992.60
2023-05-02T06:41:48.620Z,992.56
2023-05-02T06:42:48.611Z,992.61
2023-05-02T06:43:48.629Z,992.60
2023-05-02T06:44:49.582Z,992.68
2023-05-02T06:45:48.619Z,992.59
2023-05-02T06:46:48.632Z,992.62
2023-05-02T06:47:48.587Z,992.58
2023-05-02T06:48:48.630Z,992.58
2023-05-02T06:49:48.541Z,992.60
2023-05-02T06:50:48.562Z,992.62
2023-05-02T06:51:48.519Z,992.58
2023-05-02T06:52:48.519Z,992.65
2023-05-02T06:53:48.552Z,992.59
2023-05-02T06:54:48.484Z,992.68
2023-05-02T06:55:48.501Z,992.61
2023-05-02T06:56:48.468Z,992.73
2023-05-02T06:57:48.457Z,992.54
2023-05-02T06:58:48.480Z,992.66
2023-05-02T06:59:48.525Z,992.70
2023-05-02T07:00:48.456Z,992.70
2023-05-02T07:01:48.420Z,992.66
2023-05-02T07:02:48.451Z,992.73
2023-05-02T07:03:48.493Z,992.69
2023-05-02T07:04:48.447Z,992.71
2023-05-02T07:05:48.377Z,992.75
2023-05-02T07:06:48.504Z,992.75
2023-05-02T07:07:48.375Z,992.83
2023-05-02T07:08:48.379Z,992.81
2023-05-02T07:09:48.338Z,992.78
2023-05-02T07:10:48.347Z,992.78
2023-05-02T07:11:48.314Z,992.82
2023-05-02T07:12:48.300Z,992.82
2023-05-02T07:13:48.320Z,992.80
2023-05-02T07:14:48.288Z,992.82
2023-05-02T07:15:48.289Z,992.82
2023-05-02T07:16:48.314Z,992.81
2023-05-02T07:17:48.275Z,992.86
2023-05-02T07:18:48.247Z,992.86
2023-05-02T07:19:48.258Z,992.83
2023-05-02T07:20:48.228Z,992.93
2023-05-02T07:21:48.216Z,992.92
2023-05-02T07:22:48.224Z,992.98
2023-05-02T07:23:48.204Z,993.04
2023-05-02T07:24:48.207Z,993.01
2023-05-02T07:25:48.181Z,993.02
2023-05-02T07:26:48.176Z,993.01
2023-05-02T07:27:48.172Z,992.99
2023-05-02T07:28:48.173Z,992.91
2023-05-02T07:29:48.139Z,992.95
2023-05-02T07:30:48.120Z,993.08
2023-05-02T07:31:48.208Z,993.08
2023-05-02T07:32:48.165Z,993.03
2023-05-02T07:33:48.115Z,992.97
2023-05-02T07:34:48.090Z,993.06
2023-05-02T07:35:48.119Z,993.09
2023-05-02T07:36:48.083Z,993.09
2023-05-02T07:37:48.080Z,993.12
2023-05-02T07:38:48.044Z,993.02
2023-05-02T07:39:48.038Z,993.10
2023-05-02T07:40:48.048Z,993.12
2023-05-02T07:41:48.020Z,993.09
2023-05-02T07:42:48.048Z,993.14
2023-05-02T07:43:48.026Z,993.20
2023-05-02T07:44:47.987Z,993.25
2023-05-02T07:45:48.028Z,993.21
2023-05-02T07:46:48.180Z,993.15
2023-05-02T07:47:47.973Z,993.27
2023-05-02T07:48:47.968Z,993.25
2023-05-02T07:49:47.945Z,993.31
2023-05-02T07:50:47.927Z,993.28
2023-05-02T07:51:47.944Z,993.34
2023-05-02T07:52:47.941Z,993.34
2023-05-02T07:53:47.906Z,993.35
2023-05-02T07:54:47.891Z,993.41
2023-05-02T07:55:47.908Z,993.43
2023-05-02T07:56:47.895Z,993.43
2023-05-02T07:57:47.881Z,993.42
2023-05-02T07:58:47.848Z,993.49
2023-05-02T07:59:47.845Z,993.44
2023-05-02T08:00:47.873Z,993.44
2023-05-02T08:01:47.839Z,993.51
2023-05-02T08:02:47.933Z,993.49
2023-05-02T08:03:48.040Z,993.55
2023-05-02T08:04:47.859Z,993.51
2023-05-02T08:05:47.775Z,993.50
2023-05-02T08:06:47.800Z,993.54
2023-05-02T08:07:47.755Z,993.54
2023-05-02T08:08:47.768Z,993.59
2023-05-02T08:09:47.739Z,993.59
2023-05-02T08:10:47.735Z,993.63
2023-05-02T08:11:47.737Z,993.67
2023-05-02T08:12:47.703Z,993.64
2023-05-02T08:13:47.700Z,993.68
2023-05-02T08:14:47.684Z,993.65
2023-05-02T08:15:47.906Z,993.72
2023-05-02T08:16:47.743Z,993.76
2023-05-02T08:17:47.721Z,993.72
2023-05-02T08:18:47.667Z,993.78
2023-05-02T08:19:47.639Z,993.77
2023-05-02T08:20:47.765Z,993.78
2023-05-02T08:21:47.625Z,993.76
2023-05-02T08:22:47.607Z,993.73
2023-05-02T08:23:47.607Z,993.78
2023-05-02T08:24:47.639Z,993.77
2023-05-02T08:25:47.602Z,993.77
2023-05-02T08:26:47.580Z,993.85
2023-05-02T08:27:47.561Z,993.79
2023-05-02T08:28:47.573Z,993.71
2023-05-02T08:29:47.546Z,993.73
2023-05-02T08:30:47.536Z,993.81
2023-05-02T08:31:47.550Z,993.78
2023-05-02T08:32:47.621Z,993.73
2023-05-02T08:33:47.520Z,993.71
2023-05-02T08:34:47.528Z,993.71
2023-05-02T08:35:47.511Z,993.65
2023-05-02T08:36:47.496Z,993.66
2023-05-02T08:37:47.507Z,993.64
2023-05-02T08:38:47.507Z,993.71
2023-05-02T08:39:47.468Z,993.76
2023-05-02T08:40:47.445Z,993.72
2023-05-02T08:41:47.454Z,993.70
2023-05-02T08:42:47.424Z,993.65
2023-05-02T08:43:47.435Z,993.71
2023-05-02T08:44:47.393Z,993.76
2023-05-02T08:45:47.383Z,993.73
2023-05-02T08:46:47.427Z,993.69
2023-05-02T08:47:47.409Z,993.66
2023-05-02T08:48:47.360Z,993.61
2023-05-02T08:49:47.342Z,993.67
2023-05-02T08:50:47.384Z,993.61
2023-05-02T08:51:47.350Z,993.61
2023-05-02T08:52:47.310Z,993.54
2023-05-02T08:53:47.304Z,993.61
2023-05-02T08:54:47.363Z,993.62
2023-05-02T08:55:47.278Z,993.68
2023-05-02T08:56:47.290Z,993.66
2023-05-02T08:57:47.279Z,993.74
2023-05-02T08:58:47.252Z,993.73
2023-05-02T08:59:47.366Z,993.78
2023-05-02T09:00:47.261Z,993.79
2023-05-02T09:01:47.284Z,993.80
2023-05-02T09:02:47.306Z,993.77
2023-05-02T09:03:47.232Z,993.85
2023-05-02T09:04:47.262Z,993.80
2023-05-02T09:05:47.180Z,993.88
2023-05-02T09:06:47.257Z,993.89
2023-05-02T09:07:47.174Z,993.87
2023-05-02T09:08:47.172Z,993.86
2023-05-02T09:09:47.139Z,993.88
2023-05-02T09:10:47.135Z,993.89
2023-05-02T09:11:47.126Z,993.87
2023-05-02T09:12:47.114Z,993.88
2023-05-02T09:13:47.122Z,994.00
2023-05-02T09:14:47.195Z,993.98
2023-05-02T09:15:47.077Z,994.03
2023-05-02T09:16:47.087Z,993.99
2023-05-02T09:18:19.009Z,993.94
2023-05-02T09:18:47.074Z,993.92
2023-05-02T09:19:47.069Z,993.94
2023-05-02T09:20:47.092Z,993.88
2023-05-02T09:21:47.019Z,993.87
2023-05-02T09:22:47.013Z,993.93
2023-05-02T09:23:47.046Z,993.82
2023-05-02T09:24:46.992Z,993.91
2023-05-02T09:25:46.993Z,993.85
2023-05-02T09:26:47.005Z,993.88
2023-05-02T09:27:47.010Z,993.79
2023-05-02T09:28:46.963Z,993.84
2023-05-02T09:29:46.952Z,993.92
2023-05-02T09:30:47.062Z,993.83
2023-05-02T09:31:55.664Z,993.96
2023-05-02T09:32:48.969Z,993.91
2023-05-02T09:33:46.927Z,993.93
2023-05-02T09:34:46.930Z,993.96
2023-05-02T09:35:47.887Z,993.90
2023-05-02T09:36:46.918Z,993.91
2023-05-02T09:37:46.869Z,993.89
2023-05-02T09:38:46.912Z,993.94
2023-05-02T09:39:46.853Z,993.95
2023-05-02T09:40:46.891Z,994.04
2023-05-02T09:41:46.875Z,994.02
2023-05-02T09:42:46.854Z,994.10
2023-05-02T09:43:46.816Z,994.12
2023-05-02T09:44:46.792Z,994.14
2023-05-02T09:45:46.816Z,994.08
2023-05-02T09:46:47.798Z,994.14
2023-05-02T09:47:46.792Z,994.10
2023-05-02T09:48:46.785Z,994.11
2023-05-02T09:49:47.002Z,994.11
2023-05-02T09:50:46.733Z,994.19
2023-05-02T09:51:46.769Z,994.17
2023-05-02T09:52:46.761Z,994.14
2023-05-02T09:53:46.720Z,994.17
2023-05-02T09:54:46.986Z,994.08
2023-05-02T09:55:46.708Z,994.17
2023-05-02T09:56:46.681Z,994.15
2023-05-02T09:57:46.700Z,994.13
2023-05-02T09:58:46.787Z,994.18
2023-05-02T09:59:46.648Z,994.22
2023-05-02T10:00:46.664Z,994.21
2023-05-02T10:01:46.658Z,994.18
2023-05-02T10:02:46.716Z,994.21
2023-05-02T10:03:46.676Z,994.14
2023-05-02T10:04:46.649Z,994.15
2023-05-02T10:05:46.637Z,994.22
2023-05-02T10:06:46.731Z,994.22
2023-05-02T10:07:46.654Z,994.18
2023-05-02T10:08:46.563Z,994.21
2023-05-02T10:09:46.618Z,994.24
2023-05-02T10:10:46.557Z,994.25
2023-05-02T10:11:46.550Z,994.21
2023-05-02T10:12:46.536Z,994.19
2023-05-02T10:13:46.581Z,994.22
2023-05-02T10:14:46.508Z,994.21
2023-05-02T10:15:46.546Z,994.21
2023-05-02T10:16:46.495Z,994.23
2023-05-02T10:17:46.549Z,994.17
2023-05-02T10:18:46.484Z,994.21
2023-05-02T10:19:46.440Z,994.23
2023-05-02T10:20:46.473Z,994.25
2023-05-02T10:21:46.462Z,994.25
2023-05-02T10:22:46.741Z,994.14
2023-05-02T10:23:46.480Z,994.26
2023-05-02T10:24:46.452Z,994.28
2023-05-02T10:25:46.431Z,994.31
2023-05-02T10:26:46.391Z,994.28
2023-05-02T10:27:46.383Z,994.30
2023-05-02T10:28:46.352Z,994.29
2023-05-02T10:29:46.382Z,994.34
2023-05-02T10:30:46.423Z,994.29
2023-05-02T10:31:46.399Z,994.29
2023-05-02T10:32:46.359Z,994.37
2023-05-02T10:33:46.332Z,994.35
2023-05-02T10:34:46.307Z,994.32
2023-05-02T10:35:46.344Z,994.32
2023-05-02T10:36:46.286Z,994.37
2023-05-02T10:37:46.295Z,994.37
2023-05-02T10:38:46.267Z,994.37
2023-05-02T10:39:46.260Z,994.42
2023-05-02T10:40:46.283Z,994.39
2023-05-02T10:41:46.256Z,994.44
2023-05-02T10:42:46.303Z,994.44
2023-05-02T10:43:46.217Z,994.45
2023-05-02T10:44:46.231Z,994.46
2023-05-02T10:45:46.220Z,994.46
2023-05-02T10:46:46.214Z,994.47
2023-05-02T10:47:46.230Z,994.50
2023-05-02T10:48:46.177Z,994.46
2023-05-02T10:49:46.169Z,994.44
2023-05-02T10:50:46.132Z,994.52
2023-05-02T10:51:46.172Z,994.49
2023-05-02T10:52:46.133Z,994.51
2023-05-02T10:53:46.178Z,994.58
2023-05-02T10:54:46.386Z,994.53
2023-05-02T10:55:46.116Z,994.58
2023-05-02T10:56:46.121Z,994.51
2023-05-02T10:57:46.062Z,994.55
2023-05-02T10:58:46.082Z,994.50
2023-05-02T10:59:46.068Z,994.55
2023-05-02T11:00:46.134Z,994.53
2023-05-02T11:01:46.113Z,994.46
2023-05-02T11:02:46.129Z,994.50
2023-05-02T11:03:46.005Z,994.53
2023-05-02T11:04:46.011Z,994.53
2023-05-02T11:05:45.986Z,994.55
2023-05-02T11:06:46.035Z,994.57
2023-05-02T11:07:45.984Z,994.54
2023-05-02T11:08:45.963Z,994.53
2023-05-02T11:09:45.968Z,994.55
2023-05-02T11:10:45.957Z,994.60
2023-05-02T11:11:45.930Z,994.49
2023-05-02T11:12:45.926Z,994.49
2023-05-02T11:13:45.903Z,994.46
2023-05-02T11:14:45.929Z,994.47
2023-05-02T11:15:45.923Z,994.47
2023-05-02T11:16:45.928Z,994.50
2023-05-02T11:17:45.883Z,994.55
2023-05-02T11:18:45.874Z,994.55
2023-05-02T11:19:45.917Z,994.53
2023-05-02T11:20:45.911Z,994.48
2023-05-02T11:21:45.832Z,994.59
2023-05-02T11:22:45.803Z,994.52
2023-05-02T11:23:45.810Z,994.48
2023-05-02T11:24:45.813Z,994.46
2023-05-02T11:25:45.791Z,994.50
2023-05-02T11:26:45.801Z,994.54
2023-05-02T11:27:45.788Z,994.62
2023-05-02T11:28:45.756Z,994.62
2023-05-02T11:29:45.776Z,994.60
2023-05-02T11:30:45.722Z,994.63
2023-05-02T11:31:45.758Z,994.67
2023-05-02T11:32:45.839Z,994.69
2023-05-02T11:33:45.698Z,994.65
2023-05-02T11:34:45.716Z,994.70
2023-05-02T11:35:46.710Z,994.70
2023-05-02T11:36:45.684Z,994.67
2023-05-02T11:37:45.662Z,994.70
2023-05-02T11:38:45.656Z,994.70
2023-05-02T11:39:45.635Z,994.76
2023-05-02T11:40:45.636Z,994.76
2023-05-02T11:41:45.639Z,994.72
2023-05-02T11:42:45.622Z,994.77
2023-05-02T11:43:45.650Z,994.81
2023-05-02T11:44:45.633Z,994.83
2023-05-02T11:45:45.641Z,994.87
2023-05-02T11:46:45.744Z,994.83
2023-05-02T11:47:45.633Z,994.95
2023-05-02T11:48:45.553Z,994.84
2023-05-02T11:49:45.548Z,994.88
2023-05-02T11:50:49.794Z,994.84
2023-05-02T11:51:46.533Z,994.82
2023-05-02T11:52:45.503Z,994.90
2023-05-02T11:53:46.519Z,994.90
2023-05-02T11:54:45.492Z,994.92
2023-05-02T11:55:45.509Z,994.97
2023-05-02T11:56:45.532Z,995.01
2023-05-02T11:57:45.493Z,994.98
2023-05-02T11:58:45.478Z,994.95
2023-05-02T11:59:45.483Z,995.03
2023-05-02T12:00:45.427Z,995.01
2023-05-02T12:01:45.439Z,995.03
2023-05-02T12:02:45.549Z,995.04
2023-05-02T12:03:45.819Z,995.03
2023-05-02T12:04:45.392Z,995.05
2023-05-02T12:05:45.438Z,995.12
2023-05-02T12:06:45.466Z,995.11
2023-05-02T12:07:45.438Z,995.11
2023-05-02T12:08:45.411Z,995.08
2023-05-02T12:09:45.411Z,995.16
2023-05-02T12:10:45.341Z,995.19
2023-05-02T12:11:45.398Z,995.16
2023-05-02T12:12:45.329Z,995.14
2023-05-02T12:13:45.344Z,995.15
2023-05-02T12:14:45.290Z,995.17
2023-05-02T12:15:45.313Z,995.18
2023-05-02T12:16:45.372Z,995.22
2023-05-02T12:17:45.339Z,995.24
2023-05-02T12:18:45.282Z,995.19
2023-05-02T12:19:45.286Z,995.18
2023-05-02T12:20:45.236Z,995.26
2023-05-02T12:21:45.270Z,995.23
2023-05-02T12:22:45.241Z,995.23
2023-05-02T12:23:45.237Z,995.24
2023-05-02T12:24:45.201Z,995.19
2023-05-02T12:25:45.220Z,995.30
2023-05-02T12:26:45.199Z,995.29
2023-05-02T12:27:45.175Z,995.23
2023-05-02T12:28:45.142Z,995.31